createdAt,value
2023-05-08T00:01:01.545Z,100682.25
2023-05-08T00:04:04.566Z,100683.16
2023-05-08T00:07:07.296Z,100678.78
2023-05-08T00:10:10.412Z,100678.88
2023-05-08T00:13:13.191Z,100683.19
2023-05-08T00:16:18.366Z,100673.66
2023-05-08T00:19:21.011Z,100669.25
2023-05-08T00:22:23.556Z,100663.28
2023-05-08T00:25:28.301Z,100661.66
2023-05-08T00:28:30.870Z,100666.91
2023-05-08T00:31:33.519Z,100669.62
2023-05-08T00:34:36.414Z,100674.81
2023-05-08T00:37:40.848Z,100677.41
2023-05-08T00:40:43.714Z,100680.81
2023-05-08T00:43:46.336Z,100687.84
2023-05-08T00:46:49.245Z,100687.03
2023-05-08T00:49:51.854Z,100683.53
2023-05-08T00:52:54.457Z,100680.87
2023-05-08T00:55:57.792Z,100681.81
2023-05-08T00:59:00.368Z,100685.31
2023-05-08T01:02:03.757Z,100683.56
2023-05-08T01:05:06.744Z,100686.12
2023-05-08T01:08:09.424Z,100685.31
2023-05-08T01:11:14.993Z,100677.53
2023-05-08T01:14:25.976Z,100683.63
2023-05-08T01:17:37.021Z,100681.91
2023-05-08T01:20:47.005Z,100689.66
2023-05-08T01:24:19.737Z,100688.81
2023-05-08T01:27:25.127Z,100696.69
2023-05-08T01:30:33.661Z,100706.16
2023-05-08T01:33:46.981Z,100703.47
2023-05-08T01:37:00.073Z,100706.91
2023-05-08T01:40:11.403Z,100713.91
2023-05-08T01:43:31.103Z,100718.25
2023-05-08T01:46:34.460Z,100723.38
2023-05-08T01:49:45.809Z,100720.91
2023-05-08T01:52:59.091Z,100722.63
2023-05-08T01:56:08.758Z,100720.91
2023-05-08T01:59:14.085Z,100720.88
2023-05-08T02:02:17.183Z,100721.72
2023-05-08T02:05:21.380Z,100725.28
2023-05-08T02:08:23.931Z,100732.22
2023-05-08T02:11:26.462Z,100738.31
2023-05-08T02:14:28.983Z,100735.69
2023-05-08T02:17:31.571Z,100735.69
2023-05-08T02:20:34.198Z,100739.19
2023-05-08T02:23:36.739Z,100751.31
2023-05-08T02:26:39.716Z,100753.88
2023-05-08T02:29:42.501Z,100756.47
2023-05-08T02:32:46.172Z,100758.19
2023-05-08T02:35:50.876Z,100753.00
2023-05-08T02:38:53.478Z,100757.34
2023-05-08T02:41:56.028Z,100748.69
2023-05-08T02:44:58.596Z,100741.72
2023-05-08T02:48:12.028Z,100745.19
2023-05-08T02:51:29.581Z,100742.63
2023-05-08T02:54:47.728Z,100755.63
2023-05-08T02:58:24.557Z,100753.88
2023-05-08T03:01:33.664Z,100741.72
2023-05-08T03:04:38.036Z,100753.03
2023-05-08T03:07:41.923Z,100754.75
2023-05-08T03:10:46.019Z,100752.19
2023-05-08T03:13:48.700Z,100744.38
2023-05-08T03:16:51.438Z,100755.63
2023-05-08T03:19:56.419Z,100753.00
2023-05-08T03:22:59.059Z,100758.22
2023-05-08T03:26:01.624Z,100752.13
2023-05-08T03:29:04.234Z,100752.09
2023-05-08T03:32:06.811Z,100746.97
2023-05-08T03:35:09.651Z,100754.72
2023-05-08T03:38:12.239Z,100754.69
2023-05-08T03:41:14.782Z,100765.97
2023-05-08T03:44:17.318Z,100764.25
2023-05-08T03:47:20.788Z,100766.78
2023-05-08T03:50:23.355Z,100765.94
2023-05-08T03:53:25.953Z,100757.31
2023-05-08T03:56:28.445Z,100757.31
2023-05-08T03:59:39.655Z,100761.66
2023-05-08T04:02:48.702Z,100761.66
2023-05-08T04:06:03.873Z,100765.94
2023-05-08T04:09:08.703Z,100772.00
2023-05-08T04:12:40.970Z,100782.47
2023-05-08T04:15:52.259Z,100778.16
2023-05-08T04:19:03.559Z,100783.31
2023-05-08T04:22:07.706Z,100784.12
2023-05-08T04:25:10.694Z,100784.12
2023-05-08T04:28:13.508Z,100784.09
2023-05-08T04:31:16.299Z,100789.25
2023-05-08T04:34:18.851Z,100799.63
2023-05-08T04:37:28.380Z,100798.69
2023-05-08T04:40:30.990Z,100806.56
2023-05-08T04:43:34.539Z,100806.56
2023-05-08T04:46:37.216Z,100809.91
2023-05-08T04:49:39.821Z,100817.78
2023-05-08T04:52:42.993Z,100823.03
2023-05-08T04:55:45.988Z,100831.69
2023-05-08T04:58:48.544Z,100835.94
2023-05-08T05:01:51.357Z,100839.25
2023-05-08T05:04:53.942Z,100852.41
2023-05-08T05:07:56.490Z,100843.72
2023-05-08T05:10:59.083Z,100843.63
2023-05-08T05:14:01.647Z,100846.13
2023-05-08T05:17:04.527Z,100847.75
2023-05-08T05:20:08.866Z,100847.78
2023-05-08T05:23:11.464Z,100853.06
2023-05-08T05:26:14.094Z,100842.56
2023-05-08T05:29:16.763Z,100849.50
2023-05-08T05:32:19.503Z,100848.62
2023-05-08T05:35:23.062Z,100853.63
2023-05-08T05:38:27.565Z,100862.25
2023-05-08T05:41:30.171Z,100860.22
2023-05-08T05:44:32.693Z,100861.94
2023-05-08T05:47:35.327Z,100861.13
2023-05-08T05:50:38.087Z,100869.78
2023-05-08T05:53:40.679Z,100873.09
2023-05-08T05:56:43.198Z,100874.09
2023-05-08T05:59:45.817Z,100874.91
2023-05-08T06:02:48.602Z,100877.41
2023-05-08T06:05:52.224Z,100869.56
2023-05-08T06:08:55.634Z,100867.87
2023-05-08T06:11:59.627Z,100862.59
2023-05-08T06:15:02.376Z,100867.56
2023-05-08T06:18:06.314Z,100864.22
2023-05-08T06:21:13.117Z,100864.06
2023-05-08T06:24:15.809Z,100865.81
2023-05-08T06:27:22.046Z,100864.59
2023-05-08T06:30:24.721Z,100865.59
2023-05-08T06:33:27.293Z,100870.78
2023-05-08T06:36:29.861Z,100875.47
2023-05-08T06:39:32.478Z,100878.13
2023-05-08T06:42:35.112Z,100877.09
2023-05-08T06:45:37.804Z,100866.81
2023-05-08T06:48:41.402Z,100881.34
2023-05-08T06:51:44.039Z,100878.75
2023-05-08T06:54:46.911Z,100881.63
2023-05-08T06:57:49.462Z,100879.88
2023-05-08T07:00:52.010Z,100882.03
2023-05-08T07:03:54.670Z,100873.72
2023-05-08T07:06:57.197Z,100873.47
2023-05-08T07:10:00.010Z,100884.34
2023-05-08T07:13:02.569Z,100880.63
2023-05-08T07:16:11.252Z,100883.38
2023-05-08T07:19:13.839Z,100882.84
2023-05-08T07:22:16.593Z,100878.09
2023-05-08T07:25:19.235Z,100881.94
2023-05-08T07:28:21.840Z,100886.09
2023-05-08T07:31:24.740Z,100878.84
2023-05-08T07:34:27.475Z,100886.78
2023-05-08T07:37:30.053Z,100884.19
2023-05-08T07:40:32.601Z,100887.63
2023-05-08T07:43:35.800Z,100885.63
2023-05-08T07:46:38.792Z,100884.03
2023-05-08T07:49:41.890Z,100880.06
2023-05-08T07:52:44.846Z,100884.81
2023-05-08T07:55:47.495Z,100887.19
2023-05-08T07:58:50.132Z,100885.59
2023-05-08T08:01:52.780Z,100871.81
2023-05-08T08:04:55.660Z,100880.25
2023-05-08T08:07:58.160Z,100869.38
2023-05-08T08:11:02.908Z,100870.84
2023-05-08T08:14:06.237Z,100885.47
2023-05-08T08:17:08.936Z,100873.47
2023-05-08T08:20:11.949Z,100872.47
2023-05-08T08:23:14.510Z,100875.13
2023-05-08T08:26:17.100Z,100873.38
2023-05-08T08:29:19.954Z,100873.22
2023-05-08T08:32:22.515Z,100870.25
2023-05-08T08:35:29.461Z,100869.38
2023-05-08T08:38:32.054Z,100862.44
2023-05-08T08:41:34.692Z,100875.25
2023-05-08T08:44:39.219Z,100867.84
2023-05-08T08:47:44.573Z,100872.59
2023-05-08T08:50:47.819Z,100871.25
2023-05-08T08:53:51.400Z,100870.19
2023-05-08T08:56:54.538Z,100867.16
2023-05-08T08:59:57.842Z,100865.66
2023-05-08T09:03:00.712Z,100862.88
2023-05-08T09:06:03.347Z,100862.53
2023-05-08T09:09:05.935Z,100859.12
2023-05-08T09:12:08.794Z,100873.34
2023-05-08T09:15:11.710Z,100872.97
2023-05-08T09:18:14.462Z,100866.59
2023-05-08T09:21:17.232Z,100862.56
2023-05-08T09:24:19.781Z,100862.53
2023-05-08T09:27:23.043Z,100854.75
2023-05-08T09:30:25.664Z,100864.00
2023-05-08T09:33:29.216Z,100862.84
2023-05-08T09:36:32.197Z,100868.03
2023-05-08T09:39:34.901Z,100866.16
2023-05-08T09:42:40.677Z,100855.88
2023-05-08T09:45:43.359Z,100868.41
2023-05-08T09:48:46.199Z,100858.19
2023-05-08T09:51:53.528Z,100859.50
2023-05-08T09:55:06.571Z,100849.38
2023-05-08T09:58:09.526Z,100860.44
2023-05-08T10:01:35.102Z,100847.47
2023-05-08T10:04:38.053Z,100842.56
2023-05-08T10:07:41.446Z,100851.41
2023-05-08T10:10:43.977Z,100836.00
2023-05-08T10:13:46.769Z,100840.09
2023-05-08T10:16:51.907Z,100839.53
2023-05-08T10:19:55.770Z,100839.50
2023-05-08T10:22:58.799Z,100829.72
2023-05-08T10:26:07.407Z,100839.22
2023-05-08T10:29:14.075Z,100848.13
2023-05-08T10:32:16.650Z,100826.28
2023-05-08T10:35:19.170Z,100825.91
2023-05-08T10:38:21.869Z,100831.81
2023-05-08T10:41:24.591Z,100819.72
2023-05-08T10:44:27.932Z,100823.13
2023-05-08T10:48:11.996Z,100822.31
2023-05-08T10:51:24.152Z,100827.75
2023-05-08T10:54:52.142Z,100806.13
2023-05-08T10:58:05.866Z,100805.56
2023-05-08T11:01:09.396Z,100812.22
2023-05-08T11:04:25.034Z,100801.41
2023-05-08T11:07:31.146Z,100809.84
2023-05-08T11:10:37.442Z,100801.34
2023-05-08T11:13:43.313Z,100800.41
2023-05-08T11:16:55.148Z,100806.94
2023-05-08T11:20:01.890Z,100793.41
2023-05-08T11:23:21.933Z,100795.72
2023-05-08T11:26:38.923Z,100802.34
2023-05-08T11:29:42.259Z,100801.47
2023-05-08T11:33:03.504Z,100801.16
2023-05-08T11:36:23.324Z,100788.25
2023-05-08T11:39:33.866Z,100801.72
2023-05-08T11:42:48.314Z,100789.09
2023-05-08T11:46:05.026Z,100799.44
2023-05-08T11:49:26.978Z,100783.91
2023-05-08T11:52:48.289Z,100791.72
2023-05-08T11:56:02.593Z,100793.06
2023-05-08T11:59:22.869Z,100800.66
2023-05-08T12:02:47.521Z,100803.37
2023-05-08T12:06:02.065Z,100797.13
2023-05-08T12:09:23.994Z,100801.41
2023-05-08T12:12:49.337Z,100795.81
2023-05-08T12:16:06.619Z,100797.88
2023-05-08T12:19:13.731Z,100793.28
2023-05-08T12:22:18.210Z,100792.41
2023-05-08T12:25:21.581Z,100785.63
2023-05-08T12:28:24.125Z,100780.72
2023-05-08T12:31:26.738Z,100787.59
2023-05-08T12:34:29.302Z,100781.88
2023-05-08T12:37:32.038Z,100778.78
2023-05-08T12:40:36.939Z,100787.09
2023-05-08T12:43:39.695Z,100784.34
2023-05-08T12:46:47.376Z,100783.06
2023-05-08T12:49:50.318Z,100782.34
2023-05-08T12:52:52.956Z,100790.41
2023-05-08T12:55:57.184Z,100785.31
2023-05-08T12:58:59.837Z,100785.59
2023-05-08T13:02:02.470Z,100788.34
2023-05-08T13:05:05.933Z,100784.66
2023-05-08T13:08:11.905Z,100793.13
2023-05-08T13:11:14.477Z,100784.81
2023-05-08T13:14:17.036Z,100785.91
2023-05-08T13:17:19.617Z,100782.56
2023-05-08T13:20:23.676Z,100793.41
2023-05-08T13:23:26.198Z,100786.91
2023-05-08T13:26:28.744Z,100780.13
2023-05-08T13:29:31.233Z,100775.09
2023-05-08T13:32:33.939Z,100779.84
2023-05-08T13:35:36.580Z,100786.94
2023-05-08T13:38:39.111Z,100798.34
2023-05-08T13:41:41.615Z,100790.03
2023-05-08T13:44:44.221Z,100778.91
2023-05-08T13:47:47.512Z,100779.16
2023-05-08T13:50:50.155Z,100770.97
2023-05-08T13:53:52.744Z,100782.59
2023-05-08T13:56:55.301Z,100777.97
2023-05-08T13:59:57.845Z,100775.31
2023-05-08T14:03:00.467Z,100779.84
2023-05-08T14:06:03.140Z,100793.00
2023-05-08T14:09:05.782Z,100783.88
2023-05-08T14:12:08.378Z,100776.06
2023-05-08T14:15:12.085Z,100777.94
2023-05-08T14:18:15.002Z,100776.72
2023-05-08T14:21:17.610Z,100779.06
2023-05-08T14:24:20.194Z,100781.03
2023-05-08T14:27:22.759Z,100788.06
2023-05-08T14:30:25.381Z,100792.94
2023-05-08T14:33:27.964Z,100791.66
2023-05-08T14:36:31.359Z,100791.19
2023-05-08T14:39:33.959Z,100799.97
2023-05-08T14:42:36.705Z,100796.66
2023-05-08T14:45:39.308Z,100798.03
2023-05-08T14:48:41.946Z,100795.19
2023-05-08T14:51:44.487Z,100795.03
2023-05-08T14:54:53.072Z,100796.34
2023-05-08T14:57:56.465Z,100786.63
2023-05-08T15:00:59.101Z,100800.72
2023-05-08T15:04:01.850Z,100806.59
2023-05-08T15:07:05.527Z,100805.50
